createdAt,value
2023-02-22T00:00:22.968Z,12.77
2023-02-22T00:03:17.905Z,13.63
2023-02-22T00:05:47.398Z,13.93
2023-02-22T00:08:15.016Z,13.35
2023-02-22T00:10:41.819Z,12.68
2023-02-22T00:13:09.909Z,11.55
2023-02-22T00:15:36.936Z,13.95
2023-02-22T00:18:05.023Z,12.57
2023-02-22T00:20:31.824Z,12.88
2023-02-22T00:23:01.466Z,14.35
2023-02-22T00:25:28.267Z,13.80
2023-02-22T00:27:56.276Z,13.60
2023-02-22T00:30:26.811Z,13.13
2023-02-22T00:32:55.957Z,12.88
2023-02-22T00:35:24.824Z,14.80
2023-02-22T00:37:52.815Z,14.18
2023-02-22T00:40:21.652Z,14.32
2023-02-22T00:42:48.787Z,14.23
2023-02-22T00:45:22.308Z,13.80
2023-02-22T00:47:49.467Z,13.15
2023-02-22T00:50:19.171Z,13.50
2023-02-22T00:52:46.311Z,13.32
2023-02-22T00:55:19.037Z,13.70
2023-02-22T00:57:46.186Z,13.00
2023-02-22T01:00:18.724Z,13.27
2023-02-22T01:02:50.803Z,12.63
2023-02-22T01:05:21.096Z,14.98
2023-02-22T01:07:48.857Z,13.27
2023-02-22T01:10:16.549Z,13.77
2023-02-22T01:12:43.713Z,13.25
2023-02-22T01:15:11.134Z,13.57
2023-02-22T01:17:39.213Z,14.20
2023-02-22T01:20:12.895Z,13.75
2023-02-22T01:22:47.607Z,14.70
2023-02-22T01:25:19.641Z,15.67
2023-02-22T01:27:46.825Z,14.77
2023-02-22T01:30:14.351Z,15.15
2023-02-22T01:32:42.103Z,16.45
2023-02-22T01:35:11.804Z,14.88
2023-02-22T01:37:39.217Z,14.80
2023-02-22T01:40:07.348Z,14.88
2023-02-22T01:42:34.465Z,15.15
2023-02-22T01:45:35.976Z,14.85
2023-02-22T01:48:10.408Z,13.88
2023-02-22T01:50:39.998Z,15.30
2023-02-22T01:53:07.614Z,15.55
2023-02-22T01:55:34.367Z,15.23
2023-02-22T01:58:02.058Z,15.75
2023-02-22T02:00:28.880Z,16.15
2023-02-22T02:03:00.219Z,16.23
2023-02-22T02:05:27.741Z,15.07
2023-02-22T02:07:54.773Z,16.58
2023-02-22T02:10:21.987Z,17.73
2023-02-22T02:12:49.893Z,15.45
2023-02-22T02:15:25.735Z,15.40
2023-02-22T02:17:53.915Z,17.13
2023-02-22T02:20:35.213Z,15.57
2023-02-22T02:23:36.823Z,15.90
2023-02-22T02:26:14.399Z,15.88
2023-02-22T02:29:12.627Z,16.27
2023-02-22T02:32:16.835Z,16.83
2023-02-22T02:34:51.018Z,17.30
2023-02-22T02:37:26.967Z,17.55
2023-02-22T02:39:54.058Z,17.80
2023-02-22T02:42:22.839Z,15.82
2023-02-22T02:44:53.663Z,18.55
2023-02-22T02:47:26.479Z,16.80
2023-02-22T02:50:10.325Z,17.02
2023-02-22T02:52:37.405Z,16.20
2023-02-22T02:55:04.853Z,17.80
2023-02-22T02:57:32.531Z,18.02
2023-02-22T02:59:59.623Z,16.48
2023-02-22T03:02:47.425Z,18.05
2023-02-22T03:05:37.350Z,17.27
2023-02-22T03:08:16.193Z,16.40
2023-02-22T03:11:07.038Z,18.05
2023-02-22T03:13:56.738Z,17.83
2023-02-22T03:16:32.900Z,17.42
2023-02-22T03:19:08.334Z,17.30
2023-02-22T03:21:55.012Z,16.83
2023-02-22T03:24:43.164Z,18.35
2023-02-22T03:27:13.081Z,15.88
2023-02-22T03:29:41.112Z,17.00
2023-02-22T03:32:10.785Z,15.82
2023-02-22T03:34:43.032Z,16.77
2023-02-22T03:37:18.126Z,18.15
2023-02-22T03:39:44.923Z,16.75
2023-02-22T03:42:29.617Z,17.13
2023-02-22T03:44:58.197Z,16.40
2023-02-22T03:47:46.172Z,17.50
2023-02-22T03:50:15.857Z,17.77
2023-02-22T03:52:47.445Z,17.38
2023-02-22T03:55:17.703Z,16.80
2023-02-22T03:57:56.956Z,16.30
2023-02-22T04:00:26.012Z,16.70
2023-02-22T04:02:53.138Z,15.85
2023-02-22T04:08:06.419Z,16.00
2023-02-22T04:10:33.683Z,15.75
2023-02-22T04:13:01.036Z,16.70
2023-02-22T04:15:28.004Z,15.95
2023-02-22T04:17:55.234Z,17.02
2023-02-22T04:20:25.541Z,16.42
2023-02-22T04:22:53.707Z,16.80
2023-02-22T04:25:21.259Z,16.73
2023-02-22T04:27:48.640Z,17.42
2023-02-22T04:30:17.345Z,17.05
2023-02-22T04:32:44.415Z,17.50
2023-02-22T04:35:11.272Z,16.77
2023-02-22T04:37:38.358Z,16.75
2023-02-22T04:40:08.534Z,17.55
2023-02-22T04:42:36.276Z,16.65
2023-02-22T04:45:08.013Z,16.27
2023-02-22T04:47:35.922Z,15.57
2023-02-22T04:50:03.811Z,16.40
2023-02-22T04:52:30.984Z,17.23
2023-02-22T04:54:57.722Z,16.10
2023-02-22T04:57:24.798Z,16.58
2023-02-22T04:59:51.550Z,15.15
2023-02-22T05:02:18.967Z,15.30
2023-02-22T05:04:45.789Z,16.05
2023-02-22T05:07:12.882Z,15.30
2023-02-22T05:09:39.649Z,15.60
2023-02-22T05:12:07.055Z,14.75
2023-02-22T05:14:33.829Z,16.13
2023-02-22T05:17:01.256Z,14.82
2023-02-22T05:19:28.148Z,15.00
2023-02-22T05:21:56.561Z,14.68
2023-02-22T05:24:23.362Z,15.90
2023-02-22T05:26:51.373Z,15.23
2023-02-22T05:29:18.196Z,15.32
2023-02-22T05:31:45.430Z,15.93
2023-02-22T05:34:12.446Z,16.00
2023-02-22T05:36:39.467Z,15.35
2023-02-22T05:39:06.339Z,14.68
2023-02-22T05:41:33.397Z,16.90
2023-02-22T05:44:00.207Z,15.93
2023-02-22T05:46:27.426Z,17.02
2023-02-22T05:48:54.204Z,16.98
2023-02-22T05:51:21.314Z,16.83
2023-02-22T05:53:48.254Z,16.30
2023-02-22T05:56:21.776Z,17.63
2023-02-22T05:58:48.546Z,16.58
2023-02-22T06:01:15.939Z,16.63
2023-02-22T06:03:42.770Z,17.83
2023-02-22T06:06:10.398Z,17.20
2023-02-22T06:08:37.271Z,18.40
2023-02-22T06:11:04.484Z,17.60
2023-02-22T06:13:31.305Z,17.50
2023-02-22T06:15:59.088Z,18.65
2023-02-22T06:18:26.748Z,18.58
2023-02-22T06:20:53.866Z,17.25
2023-02-22T06:23:20.648Z,18.42
2023-02-22T06:25:47.991Z,19.48
2023-02-22T06:28:15.748Z,20.00
2023-02-22T06:30:43.113Z,20.65
2023-02-22T06:33:10.608Z,21.17
2023-02-22T06:35:37.673Z,21.75
2023-02-22T06:38:05.548Z,22.13
2023-02-22T06:40:32.565Z,21.33
2023-02-22T06:42:59.959Z,21.67
2023-02-22T06:45:27.248Z,22.67
2023-02-22T06:47:54.485Z,23.35
2023-02-22T06:50:22.853Z,21.73
2023-02-22T06:52:49.677Z,22.25
2023-02-22T06:55:21.291Z,23.17
2023-02-22T06:57:48.250Z,22.48
2023-02-22T07:00:17.293Z,22.70
2023-02-22T07:02:44.071Z,23.30
2023-02-22T07:05:12.825Z,24.02
2023-02-22T07:07:39.834Z,23.05
2023-02-22T07:10:08.204Z,23.50
2023-02-22T07:12:35.538Z,23.08
2023-02-22T07:15:02.705Z,25.48
2023-02-22T07:17:29.558Z,25.20
2023-02-22T07:19:56.737Z,26.42
2023-02-22T07:22:23.583Z,24.23
2023-02-22T07:24:50.724Z,24.77
2023-02-22T07:27:17.994Z,23.38
2023-02-22T07:29:45.043Z,24.00
2023-02-22T07:32:11.831Z,25.00
2023-02-22T07:34:39.073Z,24.80
2023-02-22T07:37:05.832Z,24.58
2023-02-22T07:39:34.487Z,24.33
2023-02-22T07:42:01.246Z,23.90
2023-02-22T07:44:28.375Z,24.33
2023-02-22T07:46:55.128Z,23.08
2023-02-22T07:49:22.164Z,22.52
2023-02-22T07:51:48.960Z,23.00
2023-02-22T07:54:16.049Z,22.38
2023-02-22T07:56:49.442Z,22.02
2023-02-22T07:59:16.631Z,22.05
2023-02-22T08:01:43.469Z,22.85
2023-02-22T08:04:10.599Z,21.25
2023-02-22T08:06:37.379Z,20.80
2023-02-22T08:09:04.456Z,20.27
2023-02-22T08:11:31.237Z,21.77
2023-02-22T08:13:58.317Z,20.08
2023-02-22T08:16:25.081Z,20.25
2023-02-22T08:18:52.191Z,20.30
2023-02-22T08:21:19.235Z,18.70
2023-02-22T08:23:47.713Z,20.02
2023-02-22T08:26:15.737Z,18.63
2023-02-22T08:28:43.249Z,20.25
2023-02-22T08:31:10.666Z,17.73
2023-02-22T08:33:37.892Z,18.52
2023-02-22T08:36:05.025Z,18.50
2023-02-22T08:38:34.006Z,18.98
2023-02-22T08:41:00.817Z,19.05
2023-02-22T08:43:28.554Z,18.60
2023-02-22T08:45:57.398Z,16.90
2023-02-22T08:48:24.843Z,16.33
2023-02-22T08:50:51.890Z,17.35
2023-02-22T08:53:19.099Z,17.25
2023-02-22T08:55:45.957Z,17.70
2023-02-22T08:58:13.315Z,16.70
2023-02-22T09:00:40.604Z,16.55
2023-02-22T09:03:13.402Z,15.93
2023-02-22T09:05:41.268Z,16.27
2023-02-22T09:08:08.682Z,17.10
2023-02-22T09:10:35.859Z,16.05
2023-02-22T09:13:04.096Z,16.08
2023-02-22T09:15:31.263Z,16.52
2023-02-22T09:17:58.472Z,14.02
2023-02-22T09:20:25.309Z,15.20
2023-02-22T09:22:52.756Z,15.73
2023-02-22T09:25:22.971Z,14.73
2023-02-22T09:27:51.230Z,14.73
2023-02-22T09:30:26.323Z,14.45
2023-02-22T09:32:59.308Z,15.05
2023-02-22T09:35:29.008Z,13.95
2023-02-22T09:37:56.816Z,14.15
2023-02-22T09:40:29.832Z,12.70
2023-02-22T09:43:07.271Z,12.68
2023-02-22T09:45:38.138Z,12.73
2023-02-22T09:48:20.920Z,14.30
2023-02-22T09:50:48.999Z,13.18
2023-02-22T09:53:29.339Z,12.57
2023-02-22T09:56:06.690Z,13.77
2023-02-22T09:58:36.817Z,13.70
2023-02-22T10:01:15.889Z,14.35
2023-02-22T10:04:01.173Z,11.93
2023-02-22T10:06:28.351Z,12.25
2023-02-22T10:08:57.644Z,12.57
2023-02-22T10:11:56.211Z,14.13
2023-02-22T10:14:55.512Z,13.18
2023-02-22T10:17:29.707Z,13.27
2023-02-22T10:20:22.611Z,12.43
2023-02-22T10:23:01.648Z,11.85
2023-02-22T10:25:28.868Z,11.63
2023-02-22T10:28:00.777Z,13.05
2023-02-22T10:30:34.337Z,13.27
2023-02-22T10:33:22.059Z,15.40
2023-02-22T10:35:49.350Z,14.13
2023-02-22T10:38:26.726Z,13.98
2023-02-22T10:41:04.295Z,13.52
2023-02-22T10:43:31.199Z,14.98
2023-02-22T10:46:01.420Z,16.38
2023-02-22T10:48:28.743Z,15.93
2023-02-22T10:51:02.110Z,17.25
2023-02-22T10:53:29.886Z,16.88
2023-02-22T10:56:19.213Z,18.15
2023-02-22T10:58:53.620Z,18.50
2023-02-22T11:01:33.001Z,18.27
2023-02-22T11:04:10.027Z,16.50
2023-02-22T11:06:37.243Z,17.80
2023-02-22T11:09:11.848Z,16.48
2023-02-22T11:11:41.281Z,16.63
2023-02-22T11:14:10.804Z,15.15
2023-02-22T11:16:40.829Z,14.48
2023-02-22T11:19:25.253Z,13.82
2023-02-22T11:21:55.006Z,15.20
2023-02-22T11:24:30.339Z,14.27
2023-02-22T11:27:01.601Z,13.45
2023-02-22T11:29:33.639Z,13.75
2023-02-22T11:32:02.136Z,13.93
2023-02-22T11:34:39.682Z,13.00
2023-02-22T11:37:26.014Z,12.57
2023-02-22T11:40:19.885Z,11.50
2023-02-22T11:42:46.972Z,11.13
2023-02-22T11:45:23.720Z,10.90
2023-02-22T11:47:52.616Z,10.63
2023-02-22T11:50:29.084Z,11.38
2023-02-22T11:53:09.842Z,9.13
2023-02-22T11:55:45.040Z,9.15
2023-02-22T11:58:27.255Z,10.02
2023-02-22T12:00:58.828Z,7.90
2023-02-22T12:03:54.258Z,8.38
2023-02-22T12:06:27.131Z,8.60
2023-02-22T12:09:06.176Z,9.43
2023-02-22T12:11:57.277Z,9.15
2023-02-22T12:14:52.655Z,8.45
2023-02-22T12:17:26.423Z,7.38
2023-02-22T12:19:56.416Z,7.57
2023-02-22T12:22:26.353Z,7.65
2023-02-22T12:25:09.098Z,6.70
2023-02-22T12:27:42.673Z,6.60
2023-02-22T12:30:29.366Z,6.60
2023-02-22T12:33:01.198Z,6.50
2023-02-22T12:35:30.279Z,6.18
2023-02-22T12:38:04.693Z,6.53
2023-02-22T12:40:57.118Z,6.13
2023-02-22T12:43:33.201Z,5.65
2023-02-22T12:46:04.724Z,5.05
2023-02-22T12:48:35.275Z,5.53
2023-02-22T12:51:24.627Z,6.72
2023-02-22T12:54:42.155Z,5.45
2023-02-22T12:57:20.156Z,5.40
2023-02-22T12:59:49.536Z,5.70
2023-02-22T13:02:54.478Z,6.30
2023-02-22T13:05:21.540Z,5.90
2023-02-22T13:08:08.774Z,5.20
2023-02-22T13:10:58.910Z,5.10
2023-02-22T13:13:54.944Z,5.03
2023-02-22T13:16:25.344Z,4.70
2023-02-22T13:19:01.545Z,4.78
2023-02-22T13:21:34.168Z,5.38
2023-02-22T13:24:12.634Z,5.40
2023-02-22T13:26:50.729Z,5.30
2023-02-22T13:29:23.264Z,4.85
2023-02-22T13:32:22.068Z,5.55
2023-02-22T13:35:04.880Z,5.32
2023-02-22T13:37:35.777Z,5.13
2023-02-22T13:40:28.496Z,5.65
2023-02-22T13:43:07.480Z,5.93
2023-02-22T13:46:03.876Z,5.10
2023-02-22T13:51:34.408Z,5.18
2023-02-22T13:54:14.274Z,5.30
2023-02-22T13:56:45.378Z,6.60
2023-02-22T13:59:30.366Z,6.35
2023-02-22T14:01:58.103Z,5.88
2023-02-22T14:04:27.946Z,5.93
2023-02-22T14:06:55.972Z,5.55
2023-02-22T14:09:48.324Z,6.10
2023-02-22T14:12:30.657Z,5.93
2023-02-22T14:15:29.255Z,5.55
2023-02-22T14:17:56.965Z,5.38
2023-02-22T14:20:36.106Z,6.03
2023-02-22T14:23:40.279Z,6.10
2023-02-22T14:26:19.414Z,6.60
2023-02-22T14:28:59.725Z,5.85
2023-02-22T14:31:37.048Z,8.38
2023-02-22T14:34:13.949Z,7.93
2023-02-22T14:36:51.382Z,6.40
2023-02-22T14:39:23.596Z,7.32
2023-02-22T14:41:56.449Z,6.50
2023-02-22T14:44:26.444Z,6.50
2023-02-22T14:46:54.942Z,6.57
2023-02-22T14:49:22.985Z,5.57
2023-02-22T14:51:56.380Z,5.65
2023-02-22T14:54:30.632Z,5.72
2023-02-22T14:57:14.737Z,6.38
2023-02-22T14:59:55.089Z,6.10
2023-02-22T15:02:25.978Z,5.53
2023-02-22T15:04:54.126Z,5.57
2023-02-22T15:07:27.542Z,5.50
2023-02-22T15:10:20.672Z,5.82
2023-02-22T15:13:09.684Z,6.13
2023-02-22T15:15:46.946Z,6.25
2023-02-22T15:18:35.409Z,6.40
2023-02-22T15:21:16.316Z,6.43
2023-02-22T15:23:44.646Z,6.25
2023-02-22T15:26:35.130Z,6.20
2023-02-22T15:29:02.328Z,6.47
2023-02-22T15:31:34.317Z,6.43
2023-02-22T15:34:18.998Z,6.15
2023-02-22T15:36:46.613Z,6.10
2023-02-22T15:39:22.900Z,5.93
2023-02-22T15:41:51.130Z,6.35
2023-02-22T15:44:23.559Z,7.15
2023-02-22T15:46:52.258Z,8.70
2023-02-22T15:49:20.489Z,8.45
2023-02-22T15:51:49.259Z,7.38
2023-02-22T15:54:26.465Z,7.82
2023-02-22T15:56:57.295Z,7.47
2023-02-22T15:59:29.643Z,7.28
2023-02-22T16:01:57.638Z,7.78
2023-02-22T16:04:27.051Z,7.60
2023-02-22T16:07:01.900Z,8.00
2023-02-22T16:09:30.468Z,8.25
2023-02-22T16:12:10.817Z,9.18
2023-02-22T16:14:40.408Z,7.93
2023-02-22T16:17:30.768Z,9.38
2023-02-22T16:19:59.118Z,9.05
2023-02-22T16:22:36.485Z,10.25
2023-02-22T16:25:16.565Z,9.27
2023-02-22T16:27:55.813Z,9.45
2023-02-22T16:30:36.616Z,9.25
2023-02-22T16:33:05.605Z,10.63
2023-02-22T16:35:35.646Z,11.88
2023-02-22T16:38:04.452Z,12.65
2023-02-22T16:40:34.596Z,12.68
2023-02-22T16:43:07.061Z,13.07
2023-02-22T16:45:34.380Z,12.98
2023-02-22T16:48:04.910Z,12.50
2023-02-22T16:50:31.779Z,11.85
2023-02-22T16:52:58.878Z,13.10
2023-02-22T16:55:25.710Z,11.77
2023-02-22T16:57:55.239Z,13.85
2023-02-22T17:00:31.293Z,12.13
2023-02-22T17:02:59.555Z,12.07
2023-02-22T17:05:26.387Z,12.50
2023-02-22T17:07:53.503Z,12.07
2023-02-22T17:10:20.322Z,12.45
2023-02-22T17:12:48.004Z,13.73
2023-02-22T17:15:35.099Z,13.60
2023-02-22T17:18:05.986Z,13.15
2023-02-22T17:20:32.793Z,12.32
2023-02-22T17:23:01.497Z,13.30
2023-02-22T17:25:34.624Z,12.57
2023-02-22T17:28:01.699Z,13.70
2023-02-22T17:30:28.545Z,12.80
2023-02-22T17:33:03.590Z,13.63
2023-02-22T17:35:36.900Z,13.15
2023-02-22T17:38:08.392Z,12.85
2023-02-22T17:40:36.576Z,12.68
2023-02-22T17:43:04.117Z,13.70
2023-02-22T17:45:31.124Z,12.20
2023-02-22T17:48:01.067Z,12.68
2023-02-22T17:50:27.927Z,13.50
2023-02-22T17:52:55.087Z,12.65
2023-02-22T17:55:22.397Z,14.27
2023-02-22T17:57:56.892Z,13.95
2023-02-22T18:00:33.100Z,15.02
2023-02-22T18:03:05.578Z,16.83
2023-02-22T18:05:35.318Z,15.90
2023-02-22T18:08:02.441Z,16.67
2023-02-22T18:10:29.262Z,17.02
2023-02-22T18:12:56.855Z,21.38
2023-02-22T18:15:23.676Z,23.50
2023-02-22T18:17:50.747Z,22.83
2023-02-22T18:20:31.008Z,27.13
2023-02-22T18:22:58.900Z,29.90
2023-02-22T18:25:26.003Z,24.58
2023-02-22T18:27:54.990Z,27.48
2023-02-22T18:30:21.928Z,25.60
2023-02-22T18:32:49.067Z,24.55
2023-02-22T18:35:15.905Z,26.40
2023-02-22T18:37:44.478Z,24.75
2023-02-22T18:40:11.277Z,25.35
2023-02-22T18:42:40.238Z,25.25
2023-02-22T18:45:07.690Z,23.63
2023-02-22T18:47:39.565Z,24.65
2023-02-22T18:50:07.204Z,25.77
2023-02-22T18:52:35.663Z,25.02
2023-02-22T18:55:02.493Z,23.20
2023-02-22T18:57:29.617Z,28.65
2023-02-22T18:59:56.874Z,26.67
2023-02-22T19:02:25.546Z,28.60
2023-02-22T19:04:52.590Z,26.13
2023-02-22T19:07:20.690Z,27.58
2023-02-22T19:09:51.044Z,26.77
2023-02-22T19:12:19.003Z,29.00
2023-02-22T19:14:48.558Z,28.98
2023-02-22T19:17:16.167Z,30.58
2023-02-22T19:19:43.809Z,30.95
2023-02-22T19:22:15.097Z,35.35
2023-02-22T19:24:42.945Z,34.60
2023-02-22T19:27:11.024Z,35.28
2023-02-22T19:29:40.670Z,34.30
2023-02-22T19:32:08.904Z,34.47
2023-02-22T19:34:37.044Z,35.47
2023-02-22T19:37:05.469Z,35.45
2023-02-22T19:39:33.040Z,35.83
2023-02-22T19:42:00.524Z,35.33
2023-02-22T19:44:27.516Z,34.40
2023-02-22T19:46:57.561Z,34.88
2023-02-22T19:51:58.189Z,36.00
2023-02-22T19:54:24.976Z,39.10
2023-02-22T19:56:52.139Z,37.65
2023-02-22T19:59:22.798Z,39.15
2023-02-22T20:01:52.614Z,36.75
2023-02-22T20:04:21.415Z,39.05
2023-02-22T20:06:50.643Z,38.92
2023-02-22T20:09:23.365Z,37.10
2023-02-22T20:11:51.916Z,35.85
2023-02-22T20:14:21.147Z,35.70
2023-02-22T20:16:48.353Z,36.95
2023-02-22T20:19:15.162Z,35.30
2023-02-22T20:21:42.868Z,38.08
2023-02-22T20:24:12.088Z,36.03
2023-02-22T20:26:40.001Z,36.33
2023-02-22T20:29:07.231Z,37.28
2023-02-22T20:31:34.451Z,35.13
2023-02-22T20:34:01.833Z,35.08
2023-02-22T20:36:29.541Z,36.63
2023-02-22T20:38:58.037Z,36.30
2023-02-22T20:41:27.099Z,37.00
2023-02-22T20:43:55.218Z,36.03
2023-02-22T20:46:23.722Z,36.28
2023-02-22T20:48:55.289Z,39.58
2023-02-22T20:51:22.595Z,37.75
2023-02-22T20:53:50.084Z,39.85
2023-02-22T20:56:21.780Z,39.42
2023-02-22T20:58:48.692Z,40.13
2023-02-22T21:01:17.219Z,37.55
2023-02-22T21:03:44.183Z,39.15
2023-02-22T21:06:15.289Z,38.92
2023-02-22T21:08:43.535Z,37.08
2023-02-22T21:11:14.592Z,36.63
2023-02-22T21:13:41.610Z,36.58
2023-02-22T21:16:10.389Z,37.70
2023-02-22T21:18:37.353Z,35.95
2023-02-22T21:21:12.647Z,37.60
2023-02-22T21:23:40.028Z,37.78
2023-02-22T21:26:07.850Z,36.00
2023-02-22T21:28:50.441Z,41.45
2023-02-22T21:31:23.461Z,38.13
2023-02-22T21:33:51.841Z,35.42
2023-02-22T21:36:19.043Z,37.33
2023-02-22T21:38:53.384Z,36.20
2023-02-22T21:41:21.362Z,36.22
2023-02-22T21:43:51.761Z,37.65
2023-02-22T21:46:19.197Z,39.35
2023-02-22T21:48:48.810Z,38.00
2023-02-22T21:51:17.808Z,39.72
2023-02-22T21:53:48.648Z,38.47
2023-02-22T21:56:18.857Z,41.20
2023-02-22T21:58:46.467Z,39.65
2023-02-22T22:01:17.598Z,40.55
2023-02-22T22:03:45.303Z,41.80
2023-02-22T22:06:13.691Z,41.42
2023-02-22T22:08:41.731Z,41.20
2023-02-22T22:11:10.174Z,41.10
2023-02-22T22:13:38.223Z,40.58
2023-02-22T22:16:10.595Z,40.75
2023-02-22T22:18:38.161Z,39.20
2023-02-22T22:21:16.246Z,38.75
2023-02-22T22:23:47.087Z,40.28
2023-02-22T22:26:17.003Z,38.85
2023-02-22T22:28:45.094Z,41.20
2023-02-22T22:31:12.547Z,39.97
2023-02-22T22:33:41.074Z,39.88
2023-02-22T22:36:09.389Z,40.53
2023-02-22T22:38:39.584Z,40.92
2023-02-22T22:41:07.720Z,39.42
2023-02-22T22:43:35.429Z,39.85
2023-02-22T22:46:03.544Z,39.60
2023-02-22T22:48:31.458Z,38.25
2023-02-22T22:51:02.659Z,39.88
2023-02-22T22:53:31.350Z,39.83
2023-02-22T22:56:05.390Z,36.17
2023-02-22T22:58:33.848Z,39.55
2023-02-22T23:01:05.928Z,39.25
2023-02-22T23:03:38.845Z,39.65
2023-02-22T23:06:06.034Z,38.05
2023-02-22T23:08:43.146Z,37.03
2023-02-22T23:11:10.911Z,41.33
2023-02-22T23:13:38.343Z,41.22
2023-02-22T23:16:12.055Z,40.28
2023-02-22T23:18:43.108Z,39.95
2023-02-22T23:21:10.706Z,40.72
2023-02-22T23:23:37.808Z,42.30
2023-02-22T23:26:15.999Z,41.97
2023-02-22T23:28:42.762Z,40.90
2023-02-22T23:31:10.497Z,41.13
2023-02-22T23:33:38.308Z,39.22
2023-02-22T23:36:06.319Z,40.72
2023-02-22T23:38:34.865Z,41.25
2023-02-22T23:41:03.050Z,39.22
2023-02-22T23:43:32.579Z,38.72
2023-02-22T23:46:04.006Z,38.60
2023-02-22T23:48:30.741Z,39.28
2023-02-22T23:51:00.672Z,37.63
2023-02-22T23:53:29.971Z,38.50
2023-02-22T23:55:57.070Z,36.60
2023-02-22T23:58:27.013Z,35.78
